Sainte Genevieve, Missouri
Current Conditions -  °F | °C
As of 2:55 AM on Friday 24 Oct 2014 (Local Time) from KSAR Reporting Station
Broken Clouds Broken Clouds  
Wind Chill: 10°   Ceiling: 4800
Heat Index: 10°   Visibility: 10mi
Dew Point:   Wind: 3mph
Humidity: 84%   Direction: 190°S
Pressure: 30.1"   Gusts: NA
Location:  37.98°N, 90.04°W
Report Text: KSAR 240755Z AUTO 19003KT 10SM SCT042 BKN048 BKN070 10/08 A3010 RMK AO2 T01040078
Loading
Personal Weather Stations






























Interactive Weather Map
Tropical Storm Tracking
New forecast layout! Learn more

10-Day Weather Forecast

Advertisements
Track Severe Weather on mobile